Time;durP1;ratioP1;P1;durP2;ratioP2;P2;SDS_P1;SDS_P2;PMS_P1;PMS_P2;Temp;Humidity;BMP_temperature;BMP_pressure;BME280_temperature;BME280_humidity;BME280_pressure;Samples;Min_cycle;Max_cycle;Signal;HPM_P1;HPM_P2
2022/06/16 00:02:13;;;;;;;9.85;4.60;;;;;;;;;;5096577;28;20486;-39
2022/06/16 00:04:46;;;;;;;7.55;4.22;;;;;;;;;;5096160;28;20232;-40
2022/06/16 00:07:15;;;;;;;8.45;4.60;;;;;;;;;;5097042;28;20202;-40
2022/06/16 00:09:42;;;;;;;8.23;4.88;;;;;;;;;;5097569;28;20207;-40
2022/06/16 00:12:09;;;;;;;10.88;4.95;;;;;;;;;;5097046;28;20309;-40
2022/06/16 00:14:37;;;;;;;7.50;5.03;;;;;;;;;;5097162;28;20225;-40
2022/06/16 00:17:04;;;;;;;8.13;4.57;;;;;;;;;;5097065;28;20218;-39
2022/06/16 00:19:32;;;;;;;7.88;4.95;;;;;;;;;;5096802;28;20240;-40
2022/06/16 00:21:59;;;;;;;7.45;4.70;;;;;;;;;;5096885;28;20203;-40
2022/06/16 00:24:27;;;;;;;8.18;4.55;;;;;;;;;;5097049;28;20202;-40
2022/06/16 00:26:55;;;;;;;6.70;4.25;;;;;;;;;;5096945;28;20209;-40
2022/06/16 00:29:24;;;;;;;7.75;4.47;;;;;;;;;;5078941;28;20558;-40
2022/06/16 00:31:52;;;;;;;11.27;4.80;;;;;;;;;;5096267;28;20203;-40
2022/06/16 00:34:19;;;;;;;6.32;4.43;;;;;;;;;;5078438;28;20203;-40
2022/06/16 00:36:46;;;;;;;8.40;4.57;;;;;;;;;;5095645;28;20246;-40
2022/06/16 00:39:14;;;;;;;7.47;4.28;;;;;;;;;;5079197;28;20202;-40
2022/06/16 00:41:41;;;;;;;7.78;4.43;;;;;;;;;;5096420;28;20194;-39
2022/06/16 00:44:30;;;;;;;6.75;4.47;;;;;;;;;;5094589;28;20206;-42
2022/06/16 00:46:58;;;;;;;9.27;4.72;;;;;;;;;;5110124;28;20850;-40
2022/06/16 00:49:25;;;;;;;13.18;4.63;;;;;;;;;;5096008;28;20205;-40
2022/06/16 00:51:55;;;;;;;13.18;4.70;;;;;;;;;;5096097;28;20616;-42
2022/06/16 00:54:27;;;;;;;12.80;4.10;;;;;;;;;;5077568;28;20256;-42
2022/06/16 00:56:57;;;;;;;13.90;4.53;;;;;;;;;;5095293;28;20240;-40
2022/06/16 00:59:24;;;;;;;9.52;4.50;;;;;;;;;;5078921;28;20191;-40
2022/06/16 01:01:51;;;;;;;9.68;4.40;;;;;;;;;;5096134;28;20252;-40
2022/06/16 01:07:06;;;;;;;6.80;4.70;;;;;;;;;;5095638;28;20729;-40
2022/06/16 01:09:35;;;;;;;8.18;4.80;;;;;;;;;;5111941;28;20295;-40
2022/06/16 01:15:00;;;;;;;14.95;5.85;;;;;;;;;;5078109;28;20267;-39
2022/06/16 01:17:55;;;;;;;24.83;4.60;;;;;;;;;;5078249;28;20209;-40
2022/06/16 01:20:40;;;;;;;12.52;4.43;;;;;;;;;;5095332;28;20615;-40
2022/06/16 01:23:31;;;;;;;7.90;4.13;;;;;;;;;;5078185;28;20191;-40
2022/06/16 01:26:18;;;;;;;15.63;4.65;;;;;;;;;;5095540;28;20202;-40
2022/06/16 01:29:08;;;;;;;14.13;4.50;;;;;;;;;;5111389;28;20202;-41
2022/06/16 01:31:39;;;;;;;21.83;4.78;;;;;;;;;;5077691;28;20199;-40
2022/06/16 01:34:10;;;;;;;17.15;4.72;;;;;;;;;;5077387;28;20222;-40
2022/06/16 01:37:04;;;;;;;29.50;4.68;;;;;;;;;;5077552;28;20213;-40
2022/06/16 01:39:42;;;;;;;11.65;4.53;;;;;;;;;;5060592;28;20505;-39
2022/06/16 01:42:14;;;;;;;21.77;5.47;;;;;;;;;;5077230;28;20232;-40
2022/06/16 01:45:09;;;;;;;16.25;4.97;;;;;;;;;;5061055;28;20205;-41
2022/06/16 01:47:41;;;;;;;12.93;5.75;;;;;;;;;;5053960;28;20211;-40
2022/06/16 01:50:20;;;;;;;9.55;5.30;;;;;;;;;;5094945;28;20202;-40
2022/06/16 01:52:53;;;;;;;9.38;4.65;;;;;;;;;;5077037;28;20622;-40
2022/06/16 01:55:23;;;;;;;15.30;4.68;;;;;;;;;;5076970;28;20209;-42
2022/06/16 01:57:59;;;;;;;12.50;5.30;;;;;;;;;;5059936;28;20198;-39
2022/06/16 02:00:26;;;;;;;18.33;5.72;;;;;;;;;;5076369;28;20204;-40
2022/06/16 02:03:04;;;;;;;16.15;5.80;;;;;;;;;;5060323;28;20222;-40
2022/06/16 02:05:45;;;;;;;11.48;6.45;;;;;;;;;;5051981;28;20204;-40
2022/06/16 02:08:37;;;;;;;10.60;6.32;;;;;;;;;;5035494;28;20215;-40
2022/06/16 02:11:13;;;;;;;10.82;5.65;;;;;;;;;;5035124;28;20204;-39
2022/06/16 02:14:15;;;;;;;10.35;5.65;;;;;;;;;;5051816;28;20235;-39
2022/06/16 02:16:44;;;;;;;12.75;5.75;;;;;;;;;;5013020;28;20204;-40
2022/06/16 02:19:15;;;;;;;23.08;5.43;;;;;;;;;;5051705;28;20212;-39
2022/06/16 02:21:48;;;;;;;24.85;5.80;;;;;;;;;;5068488;28;20187;-40
2022/06/16 02:24:17;;;;;;;10.60;5.57;;;;;;;;;;5035556;28;20633;-40
2022/06/16 02:26:45;;;;;;;11.85;5.90;;;;;;;;;;5035165;28;20602;-40
2022/06/16 02:29:34;;;;;;;11.55;5.50;;;;;;;;;;5051648;28;20204;-39
2022/06/16 02:32:16;;;;;;;12.27;5.65;;;;;;;;;;5051637;28;20222;-39
2022/06/16 02:35:21;;;;;;;10.35;5.82;;;;;;;;;;5035417;28;20216;-40
2022/06/16 02:38:23;;;;;;;8.98;6.15;;;;;;;;;;5094185;28;20198;-40
2022/06/16 02:41:03;;;;;;;19.52;6.07;;;;;;;;;;5063503;28;20199;-40
2022/06/16 02:43:52;;;;;;;22.02;5.18;;;;;;;;;;5075949;28;20279;-42
2022/06/16 02:46:27;;;;;;;9.27;4.80;;;;;;;;;;5039745;28;20286;-40
2022/06/16 02:49:04;;;;;;;10.52;4.53;;;;;;;;;;5073139;28;20525;-41
2022/06/16 02:51:59;;;;;;;9.43;4.85;;;;;;;;;;5072868;28;20184;-39
2022/06/16 02:54:41;;;;;;;11.00;4.90;;;;;;;;;;5056115;28;20617;-40
2022/06/16 02:57:16;;;;;;;14.55;5.80;;;;;;;;;;5031473;28;1219311;-40
2022/06/16 02:59:57;;;;;;;9.75;5.47;;;;;;;;;;5041783;28;20620;-39
2022/06/16 03:02:26;;;;;;;12.88;4.82;;;;;;;;;;5060844;28;20616;-39
2022/06/16 03:04:56;;;;;;;17.63;4.93;;;;;;;;;;5060496;28;20200;-39
2022/06/16 03:07:25;;;;;;;10.93;5.55;;;;;;;;;;5060843;28;20291;-39
2022/06/16 03:10:05;;;;;;;17.92;5.70;;;;;;;;;;5060422;28;20203;-40
2022/06/16 03:12:34;;;;;;;17.70;5.60;;;;;;;;;;5060064;28;20199;-40
2022/06/16 03:15:02;;;;;;;14.18;6.15;;;;;;;;;;5060231;28;20593;-39
2022/06/16 03:17:31;;;;;;;14.05;5.30;;;;;;;;;;5060046;28;20643;-39
2022/06/16 03:19:58;;;;;;;17.50;6.10;;;;;;;;;;5076506;28;20237;-40
2022/06/16 03:22:26;;;;;;;14.65;5.57;;;;;;;;;;5076494;28;20631;-40
2022/06/16 03:24:53;;;;;;;14.57;6.43;;;;;;;;;;5059877;28;20662;-40
2022/06/16 03:27:23;;;;;;;16.10;6.30;;;;;;;;;;5076488;28;20207;-39
2022/06/16 03:29:52;;;;;;;12.70;6.35;;;;;;;;;;5059979;28;20210;-40
2022/06/16 03:32:19;;;;;;;15.55;6.75;;;;;;;;;;5060049;28;20505;-40
2022/06/16 03:34:46;;;;;;;13.45;7.13;;;;;;;;;;5076995;28;20664;-40
2022/06/16 03:37:17;;;;;;;14.95;7.53;;;;;;;;;;5059620;28;20613;-40
2022/06/16 03:39:51;;;;;;;14.95;7.38;;;;;;;;;;5059965;28;20207;-39
2022/06/16 03:42:18;;;;;;;10.93;7.70;;;;;;;;;;5059813;28;20282;-40
2022/06/16 03:44:45;;;;;;;13.00;7.70;;;;;;;;;;5059512;28;20214;-40
2022/06/16 03:47:16;;;;;;;13.68;8.45;;;;;;;;;;5076631;28;20199;-40
2022/06/16 03:49:43;;;;;;;12.90;7.82;;;;;;;;;;5076187;28;20214;-39
2022/06/16 03:52:10;;;;;;;10.52;8.25;;;;;;;;;;5077239;28;20214;-39
2022/06/16 03:54:45;;;;;;;17.27;7.75;;;;;;;;;;5076147;28;20222;-39
2022/06/16 03:57:13;;;;;;;17.15;7.55;;;;;;;;;;5059507;28;20231;-39
2022/06/16 03:59:40;;;;;;;14.80;7.68;;;;;;;;;;5059359;28;20207;-39
2022/06/16 04:02:24;;;;;;;12.52;7.40;;;;;;;;;;5060611;28;20207;-40
2022/06/16 04:04:51;;;;;;;9.98;7.38;;;;;;;;;;5079512;28;20214;-39
2022/06/16 04:07:18;;;;;;;11.07;7.65;;;;;;;;;;5079078;28;20203;-39
2022/06/16 04:10:06;;;;;;;16.88;7.32;;;;;;;;;;5096325;28;20206;-40
2022/06/16 04:12:35;;;;;;;13.18;6.85;;;;;;;;;;5095424;28;20198;-40
2022/06/16 04:15:03;;;;;;;9.48;6.55;;;;;;;;;;5078901;28;20260;-40
2022/06/16 04:17:30;;;;;;;12.35;6.28;;;;;;;;;;5079152;28;20221;-40
2022/06/16 04:20:12;;;;;;;9.23;6.18;;;;;;;;;;5075446;28;20675;-39
2022/06/16 04:22:50;;;;;;;10.15;6.22;;;;;;;;;;5059571;28;20187;-39
2022/06/16 04:25:22;;;;;;;15.43;5.90;;;;;;;;;;5075397;28;20191;-40
2022/06/16 04:27:50;;;;;;;10.32;6.20;;;;;;;;;;5059022;28;20204;-39
2022/06/16 04:30:18;;;;;;;12.23;6.70;;;;;;;;;;5058685;28;20203;-39
2022/06/16 04:32:45;;;;;;;11.40;6.05;;;;;;;;;;5067579;28;20210;-39
2022/06/16 04:35:15;;;;;;;8.40;6.18;;;;;;;;;;5078801;28;20237;-39
2022/06/16 04:37:58;;;;;;;10.65;5.60;;;;;;;;;;5078791;28;20197;-40
2022/06/16 04:40:26;;;;;;;7.57;5.30;;;;;;;;;;5078623;28;20206;-39
2022/06/16 04:43:00;;;;;;;7.32;5.00;;;;;;;;;;5078668;28;20195;-39
2022/06/16 04:45:27;;;;;;;10.52;6.32;;;;;;;;;;5078655;28;20214;-39
2022/06/16 04:47:55;;;;;;;12.98;6.60;;;;;;;;;;5078690;28;20202;-39
2022/06/16 04:50:22;;;;;;;12.27;6.75;;;;;;;;;;5078328;28;20221;-39
2022/06/16 04:52:53;;;;;;;8.68;5.63;;;;;;;;;;5078642;28;20191;-39
2022/06/16 04:55:25;;;;;;;9.63;6.95;;;;;;;;;;5078239;28;20273;-40
2022/06/16 04:58:06;;;;;;;11.45;6.93;;;;;;;;;;5078823;28;20252;-40
2022/06/16 05:00:53;;;;;;;9.63;6.80;;;;;;;;;;5081229;28;20208;-40
2022/06/16 05:03:54;;;;;;;12.23;6.35;;;;;;;;;;5078382;28;20539;-39
2022/06/16 05:06:25;;;;;;;12.63;5.68;;;;;;;;;;5070041;28;20226;-40
2022/06/16 05:09:02;;;;;;;11.02;5.20;;;;;;;;;;5067495;28;20563;-39
2022/06/16 05:11:39;;;;;;;12.07;5.60;;;;;;;;;;5074712;28;20249;-42
2022/06/16 05:14:46;;;;;;;9.52;5.88;;;;;;;;;;5025025;28;20311;-40
2022/06/16 05:17:26;;;;;;;10.65;5.88;;;;;;;;;;5029400;28;20314;-40
2022/06/16 05:20:03;;;;;;;8.20;5.93;;;;;;;;;;5054140;28;20239;-39
2022/06/16 05:22:46;;;;;;;7.97;5.13;;;;;;;;;;5065706;28;20215;-41
2022/06/16 05:25:43;;;;;;;8.68;4.63;;;;;;;;;;5021160;28;20575;-42
2022/06/16 05:28:25;;;;;;;7.00;4.07;;;;;;;;;;5066516;28;20222;-40
2022/06/16 05:31:11;;;;;;;7.32;4.10;;;;;;;;;;5081102;28;20222;-42
2022/06/16 05:33:57;;;;;;;7.78;4.22;;;;;;;;;;5066654;28;20287;-41
2022/06/16 05:36:47;;;;;;;7.22;3.65;;;;;;;;;;5068374;28;20555;-40
2022/06/16 05:39:32;;;;;;;8.18;3.40;;;;;;;;;;5066484;28;20229;-41
2022/06/16 05:42:17;;;;;;;9.23;3.95;;;;;;;;;;5082038;28;20215;-40
2022/06/16 05:45:06;;;;;;;10.57;3.88;;;;;;;;;;5081920;28;20218;-41
2022/06/16 05:47:59;;;;;;;5.82;3.30;;;;;;;;;;5036877;28;20224;-42
2022/06/16 05:50:31;;;;;;;9.63;3.70;;;;;;;;;;5024259;28;20231;-40
2022/06/16 05:52:58;;;;;;;7.35;3.50;;;;;;;;;;5023472;28;20219;-44
2022/06/16 05:55:31;;;;;;;5.53;3.30;;;;;;;;;;5030637;28;20243;-40
2022/06/16 05:57:58;;;;;;;7.72;3.08;;;;;;;;;;5036669;28;20220;-40
2022/06/16 06:00:25;;;;;;;9.80;3.53;;;;;;;;;;5023594;28;20220;-40
2022/06/16 06:02:58;;;;;;;8.45;3.15;;;;;;;;;;5031743;28;20584;-43
2022/06/16 06:05:35;;;;;;;8.43;3.20;;;;;;;;;;5015324;28;20239;-39
2022/06/16 06:16:29;;;;;;;6.78;4.05;;;;;;;;;;5018642;28;20298;-39
2022/06/16 06:18:58;;;;;;;4.88;3.08;;;;;;;;;;5014996;28;20240;-39
2022/06/16 06:24:12;;;;;;;7.90;3.20;;;;;;;;;;5041265;28;20242;-39
2022/06/16 06:26:40;;;;;;;6.30;3.30;;;;;;;;;;5056620;28;20220;-41
2022/06/16 06:29:07;;;;;;;8.10;3.00;;;;;;;;;;5056226;28;20246;-39
2022/06/16 06:31:34;;;;;;;7.05;2.85;;;;;;;;;;5056411;28;20238;-39
2022/06/16 06:34:01;;;;;;;7.80;3.05;;;;;;;;;;5073326;28;20235;-39
2022/06/16 06:36:28;;;;;;;4.35;2.60;;;;;;;;;;5060102;28;20276;-40
2022/06/16 06:38:55;;;;;;;6.15;2.60;;;;;;;;;;5062057;28;20281;-40
2022/06/16 06:41:23;;;;;;;7.45;2.55;;;;;;;;;;5077776;28;20250;-40
2022/06/16 06:43:50;;;;;;;5.38;2.35;;;;;;;;;;5077009;28;20234;-40
2022/06/16 06:46:17;;;;;;;7.95;2.78;;;;;;;;;;5077147;28;20219;-40
2022/06/16 06:48:45;;;;;;;5.35;2.83;;;;;;;;;;5076820;28;20254;-40
2022/06/16 06:51:12;;;;;;;4.07;2.70;;;;;;;;;;5087492;28;20226;-40
2022/06/16 06:53:39;;;;;;;3.63;2.03;;;;;;;;;;5097039;28;20214;-41
2022/06/16 06:56:06;;;;;;;4.50;2.42;;;;;;;;;;5087024;28;20231;-41
2022/06/16 06:58:33;;;;;;;5.60;2.90;;;;;;;;;;5059399;28;20284;-43
2022/06/16 07:01:01;;;;;;;10.43;3.28;;;;;;;;;;5076489;28;20275;-41
2022/06/16 07:03:29;;;;;;;6.60;2.60;;;;;;;;;;5086802;28;20215;-40
2022/06/16 07:05:58;;;;;;;5.72;2.72;;;;;;;;;;5089258;28;20242;-41
2022/06/16 07:08:25;;;;;;;8.40;2.92;;;;;;;;;;5080794;28;20231;-40
2022/06/16 07:10:52;;;;;;;5.32;2.50;;;;;;;;;;5093345;28;20223;-44
2022/06/16 07:13:19;;;;;;;7.30;2.70;;;;;;;;;;5099151;28;20224;-40
2022/06/16 07:15:46;;;;;;;4.88;2.42;;;;;;;;;;5088367;28;20230;-41
2022/06/16 07:18:14;;;;;;;4.63;2.40;;;;;;;;;;5089340;28;20714;-40
2022/06/16 07:20:41;;;;;;;6.60;2.47;;;;;;;;;;5095032;28;20222;-40
2022/06/16 07:23:09;;;;;;;7.57;3.60;;;;;;;;;;5092938;28;20249;-42
2022/06/16 07:25:36;;;;;;;7.07;3.70;;;;;;;;;;5094464;28;20219;-40
2022/06/16 07:28:03;;;;;;;7.20;2.95;;;;;;;;;;5096656;28;20237;-40
2022/06/16 07:30:30;;;;;;;11.82;2.78;;;;;;;;;;5096818;28;20238;-40
2022/06/16 07:32:57;;;;;;;5.78;2.80;;;;;;;;;;5096412;28;20222;-41
2022/06/16 07:35:25;;;;;;;6.20;2.83;;;;;;;;;;5095417;28;20231;-40
2022/06/16 07:37:52;;;;;;;6.13;2.50;;;;;;;;;;5096244;28;20562;-41
2022/06/16 07:40:20;;;;;;;5.30;2.42;;;;;;;;;;5096948;28;20275;-40
2022/06/16 07:42:49;;;;;;;13.60;2.80;;;;;;;;;;5096470;28;20230;-40
2022/06/16 07:45:16;;;;;;;7.80;2.40;;;;;;;;;;5095828;28;20539;-40
2022/06/16 07:47:43;;;;;;;2.45;1.90;;;;;;;;;;5096551;28;20238;-39
2022/06/16 07:50:11;;;;;;;5.35;1.98;;;;;;;;;;5095770;28;20261;-40
2022/06/16 07:52:38;;;;;;;5.97;2.03;;;;;;;;;;5096336;28;20222;-40
2022/06/16 07:55:06;;;;;;;3.45;1.98;;;;;;;;;;5095678;28;20663;-40
2022/06/16 07:57:45;;;;;;;6.95;2.33;;;;;;;;;;5096129;28;20675;-40
2022/06/16 08:00:19;;;;;;;5.10;2.28;;;;;;;;;;5096011;28;20230;-41
2022/06/16 08:02:46;;;;;;;5.80;2.30;;;;;;;;;;5096227;28;20675;-40
2022/06/16 08:05:21;;;;;;;3.83;1.92;;;;;;;;;;5096300;28;20230;-41
2022/06/16 08:07:48;;;;;;;3.10;1.90;;;;;;;;;;5096521;28;20658;-44
2022/06/16 08:10:18;;;;;;;4.82;1.95;;;;;;;;;;5095881;28;20257;-45
2022/06/16 08:12:46;;;;;;;4.55;2.00;;;;;;;;;;5095675;28;20247;-44
2022/06/16 08:15:13;;;;;;;3.03;2.03;;;;;;;;;;5094519;28;20242;-43
2022/06/16 08:17:43;;;;;;;3.97;2.20;;;;;;;;;;5096061;28;20227;-48
2022/06/16 08:20:11;;;;;;;7.40;2.50;;;;;;;;;;5077055;28;20219;-43
2022/06/16 08:22:38;;;;;;;7.43;2.28;;;;;;;;;;5092742;28;20218;-43
2022/06/16 08:25:06;;;;;;;4.57;2.25;;;;;;;;;;5094822;28;20215;-44
2022/06/16 08:27:36;;;;;;;6.47;2.17;;;;;;;;;;5096052;28;20255;-47
2022/06/16 08:30:08;;;;;;;3.53;2.10;;;;;;;;;;5071962;28;20234;-48
2022/06/16 08:32:35;;;;;;;6.05;2.28;;;;;;;;;;5064260;28;20534;-46
2022/06/16 08:35:03;;;;;;;5.80;2.10;;;;;;;;;;5095231;28;20227;-47
2022/06/16 08:37:34;;;;;;;3.13;1.70;;;;;;;;;;5095275;28;20229;-47
2022/06/16 08:40:03;;;;;;;3.30;1.90;;;;;;;;;;5095209;28;20231;-46
2022/06/16 08:42:46;;;;;;;3.60;1.67;;;;;;;;;;5076771;28;20221;-47
2022/06/16 08:45:38;;;;;;;3.20;1.75;;;;;;;;;;5087968;28;20275;-47
2022/06/16 08:48:18;;;;;;;5.15;2.05;;;;;;;;;;5094706;28;20279;-46
2022/06/16 08:50:51;;;;;;;7.18;2.30;;;;;;;;;;5095048;28;20226;-47
2022/06/16 08:53:49;;;;;;;3.47;1.70;;;;;;;;;;5077633;28;20241;-46
2022/06/16 08:56:23;;;;;;;8.68;1.90;;;;;;;;;;5094424;28;20238;-46
2022/06/16 08:58:59;;;;;;;9.10;2.70;;;;;;;;;;5077614;28;20237;-46
2022/06/16 09:01:42;;;;;;;2.50;1.60;;;;;;;;;;5077371;28;20222;-46
2022/06/16 09:04:24;;;;;;;3.75;1.90;;;;;;;;;;5094745;28;20231;-47
2022/06/16 09:07:13;;;;;;;3.92;2.05;;;;;;;;;;5077432;28;20231;-46
2022/06/16 09:10:17;;;;;;;5.10;1.75;;;;;;;;;;5095031;28;20230;-46
2022/06/16 09:12:57;;;;;;;9.57;2.58;;;;;;;;;;5094887;28;20226;-46
2022/06/16 09:15:45;;;;;;;6.93;1.85;;;;;;;;;;5095098;28;20272;-46
2022/06/16 09:18:31;;;;;;;4.63;2.17;;;;;;;;;;5093931;28;20667;-47
2022/06/16 09:21:23;;;;;;;6.20;2.00;;;;;;;;;;5093742;28;20701;-48
2022/06/16 09:24:12;;;;;;;3.95;1.80;;;;;;;;;;5094869;28;20229;-50
2022/06/16 09:26:47;;;;;;;5.43;2.00;;;;;;;;;;5093213;28;20579;-49
2022/06/16 09:29:49;;;;;;;4.90;2.13;;;;;;;;;;5068758;28;20227;-50
2022/06/16 09:32:48;;;;;;;3.50;1.92;;;;;;;;;;5088892;28;20232;-52
2022/06/16 09:35:56;;;;;;;3.72;1.80;;;;;;;;;;5087371;28;20256;-45
2022/06/16 09:38:47;;;;;;;5.30;1.73;;;;;;;;;;5005728;28;20231;-46
2022/06/16 09:44:49;;;;;;;5.82;2.58;;;;;;;;;;5012893;28;20237;-46
2022/06/16 09:47:21;;;;;;;5.97;2.22;;;;;;;;;;5011991;28;20682;-46
2022/06/16 09:50:19;;;;;;;5.72;1.85;;;;;;;;;;5012877;28;20229;-57
2022/06/16 09:52:58;;;;;;;6.47;2.20;;;;;;;;;;5012597;28;20229;-57
2022/06/16 09:55:34;;;;;;;3.75;1.90;;;;;;;;;;4992121;28;20233;-59
2022/06/16 09:58:38;;;;;;;9.65;1.67;;;;;;;;;;5010996;28;20233;-59
2022/06/16 10:01:09;;;;;;;7.80;2.00;;;;;;;;;;5012282;28;20217;-57
2022/06/16 10:03:47;;;;;;;2.35;1.73;;;;;;;;;;5016704;28;20207;-57
2022/06/16 10:07:15;;;;;;;6.90;5.13;;;;;;;;;;5011483;28;20205;-58
2022/06/16 10:10:00;;;;;;;3.63;1.80;;;;;;;;;;4993880;28;20201;-59
2022/06/16 10:12:36;;;;;;;5.82;1.90;;;;;;;;;;5022932;28;20204;-60
2022/06/16 10:15:09;;;;;;;5.20;2.10;;;;;;;;;;5066669;28;20239;-57
2022/06/16 10:17:39;;;;;;;4.25;2.00;;;;;;;;;;5059764;28;20681;-57
2022/06/16 10:20:06;;;;;;;9.75;3.97;;;;;;;;;;5059339;28;20210;-57
2022/06/16 10:22:36;;;;;;;8.65;2.53;;;;;;;;;;5077346;28;20222;-56
2022/06/16 10:25:08;;;;;;;6.50;2.58;;;;;;;;;;5060652;28;20686;-56
2022/06/16 10:27:44;;;;;;;2.90;1.60;;;;;;;;;;5078572;28;20199;-55
2022/06/16 10:30:27;;;;;;;3.35;1.63;;;;;;;;;;5078263;28;20202;-56
2022/06/16 10:33:05;;;;;;;4.32;1.80;;;;;;;;;;5061404;28;20211;-57
2022/06/16 10:35:32;;;;;;;3.28;1.52;;;;;;;;;;5078815;28;20229;-58
2022/06/16 10:38:00;;;;;;;3.72;1.80;;;;;;;;;;5078423;28;20200;-58
2022/06/16 10:40:32;;;;;;;3.53;1.90;;;;;;;;;;5078128;28;20536;-57
2022/06/16 10:43:19;;;;;;;4.55;1.67;;;;;;;;;;5072214;28;20635;-57
2022/06/16 10:46:20;;;;;;;3.47;1.88;;;;;;;;;;5080927;28;20241;-57
2022/06/16 10:48:50;;;;;;;3.92;2.30;;;;;;;;;;5084368;28;20205;-59
2022/06/16 10:51:23;;;;;;;3.13;2.45;;;;;;;;;;5081043;28;20222;-57
2022/06/16 10:53:50;;;;;;;5.25;3.03;;;;;;;;;;5081079;28;20203;-57
2022/06/16 10:56:20;;;;;;;4.15;2.70;;;;;;;;;;5098671;28;20246;-59
2022/06/16 10:58:51;;;;;;;3.28;1.88;;;;;;;;;;5098609;28;20237;-56
2022/06/16 11:01:46;;;;;;;6.50;1.92;;;;;;;;;;5080795;28;20207;-58
2022/06/16 11:04:18;;;;;;;3.33;1.75;;;;;;;;;;5095314;28;20215;-56
2022/06/16 11:06:48;;;;;;;4.80;1.50;;;;;;;;;;5098644;28;20218;-57
2022/06/16 11:09:21;;;;;;;3.47;1.90;;;;;;;;;;5080562;28;20268;-57
2022/06/16 11:12:16;;;;;;;3.13;1.70;;;;;;;;;;5098272;28;20199;-56
2022/06/16 11:14:52;;;;;;;2.80;1.55;;;;;;;;;;5088481;28;20209;-58
2022/06/16 11:17:41;;;;;;;5.35;1.60;;;;;;;;;;5097852;28;20271;-58
2022/06/16 11:20:34;;;;;;;2.88;1.50;;;;;;;;;;5097374;28;20190;-57
2022/06/16 11:23:24;;;;;;;3.58;2.35;;;;;;;;;;5097791;28;20203;-57
2022/06/16 11:26:00;;;;;;;3.08;2.25;;;;;;;;;;5097674;28;20215;-58
2022/06/16 11:28:28;;;;;;;4.93;1.90;;;;;;;;;;5097906;28;20187;-55
2022/06/16 11:30:59;;;;;;;4.97;1.80;;;;;;;;;;5097775;28;20216;-57
2022/06/16 11:36:48;;;;;;;4.28;1.50;;;;;;;;;;5097764;28;20222;-57
2022/06/16 11:39:36;;;;;;;2.67;1.38;;;;;;;;;;5097336;28;20199;-56
2022/06/16 11:42:04;;;;;;;3.83;1.65;;;;;;;;;;5097284;28;20708;-54
2022/06/16 11:44:49;;;;;;;3.22;1.50;;;;;;;;;;5080186;28;20235;-57
2022/06/16 11:48:00;;;;;;;4.78;1.60;;;;;;;;;;5079900;28;20195;-51
2022/06/16 11:50:35;;;;;;;5.40;2.05;;;;;;;;;;5015499;28;20661;-54
2022/06/16 11:53:02;;;;;;;5.55;1.90;;;;;;;;;;5015838;28;20649;-55
2022/06/16 11:55:33;;;;;;;2.92;1.88;;;;;;;;;;5059146;28;20230;-58
2022/06/16 11:58:31;;;;;;;5.30;1.52;;;;;;;;;;5097023;28;20191;-56
2022/06/16 12:01:08;;;;;;;6.82;1.83;;;;;;;;;;5080123;28;20198;-58
2022/06/16 12:03:41;;;;;;;7.28;1.75;;;;;;;;;;5097052;28;20213;-56
2022/06/16 12:06:09;;;;;;;2.17;1.25;;;;;;;;;;5097193;28;20234;-57
2022/06/16 12:08:54;;;;;;;3.53;1.33;;;;;;;;;;5097168;28;20610;-57
2022/06/16 12:11:31;;;;;;;3.22;1.58;;;;;;;;;;5097446;28;20198;-57
2022/06/16 12:14:27;;;;;;;3.97;2.17;;;;;;;;;;5096630;28;20213;-56
2022/06/16 12:17:16;;;;;;;4.05;1.55;;;;;;;;;;5096926;28;20244;-57
2022/06/16 12:20:22;;;;;;;2.95;1.30;;;;;;;;;;5096595;28;20223;-57
2022/06/16 12:23:19;;;;;;;3.95;1.38;;;;;;;;;;5097150;28;20256;-55
2022/06/16 12:25:58;;;;;;;8.15;1.55;;;;;;;;;;5096851;28;20213;-55
2022/06/16 12:28:49;;;;;;;4.53;1.58;;;;;;;;;;5096953;28;20284;-57
2022/06/16 12:31:30;;;;;;;3.38;1.30;;;;;;;;;;5096819;28;20210;-55
2022/06/16 12:34:07;;;;;;;2.60;1.25;;;;;;;;;;5096235;28;20206;-58
2022/06/16 12:37:00;;;;;;;4.10;1.40;;;;;;;;;;5079231;28;20279;-54
2022/06/16 12:39:43;;;;;;;3.35;1.30;;;;;;;;;;5079537;28;20202;-57
2022/06/16 12:42:13;;;;;;;2.58;1.58;;;;;;;;;;5079040;28;20226;-58
2022/06/16 12:44:45;;;;;;;4.72;2.15;;;;;;;;;;5096656;28;20210;-57
2022/06/16 12:47:28;;;;;;;5.15;1.80;;;;;;;;;;5096458;28;20293;-58
2022/06/16 12:50:16;;;;;;;2.97;1.52;;;;;;;;;;5096462;28;20195;-58
2022/06/16 12:52:52;;;;;;;3.75;1.70;;;;;;;;;;5079037;28;20302;-56
2022/06/16 12:55:28;;;;;;;2.92;2.00;;;;;;;;;;5078722;28;20198;-57
2022/06/16 12:58:11;;;;;;;4.25;1.80;;;;;;;;;;5078312;28;20194;-56
2022/06/16 13:00:42;;;;;;;4.65;1.48;;;;;;;;;;5078902;28;20263;-54
2022/06/16 13:03:17;;;;;;;4.53;1.55;;;;;;;;;;5095884;28;20217;-57
2022/06/16 13:05:45;;;;;;;3.00;1.45;;;;;;;;;;5078630;28;20214;-55
2022/06/16 13:08:13;;;;;;;5.80;1.50;;;;;;;;;;5095821;28;20627;-56
2022/06/16 13:10:43;;;;;;;1.95;1.25;;;;;;;;;;5078046;28;20228;-57
2022/06/16 13:13:11;;;;;;;5.32;1.67;;;;;;;;;;5078125;28;20187;-56
2022/06/16 13:15:42;;;;;;;2.13;1.38;;;;;;;;;;5095707;28;20601;-56
2022/06/16 13:18:19;;;;;;;5.35;1.40;;;;;;;;;;5095759;28;20276;-58
2022/06/16 13:20:48;;;;;;;5.18;1.33;;;;;;;;;;5095503;28;20214;-54
2022/06/16 13:23:32;;;;;;;2.13;1.35;;;;;;;;;;5077782;28;20194;-56
2022/06/16 13:26:25;;;;;;;1.58;1.10;;;;;;;;;;5095481;28;20202;-58
2022/06/16 13:29:04;;;;;;;2.47;1.23;;;;;;;;;;5087542;28;20580;-53
2022/06/16 13:31:43;;;;;;;2.35;1.20;;;;;;;;;;5078426;28;20213;-56
2022/06/16 13:34:41;;;;;;;1.58;1.23;;;;;;;;;;5095729;28;20218;-57
2022/06/16 13:37:08;;;;;;;2.05;1.20;;;;;;;;;;5091878;28;20580;-56
2022/06/16 13:39:48;;;;;;;2.88;1.40;;;;;;;;;;5095299;28;20504;-57
2022/06/16 13:42:22;;;;;;;3.55;1.40;;;;;;;;;;5095423;28;20195;-58
2022/06/16 13:45:10;;;;;;;1.77;1.05;;;;;;;;;;5078006;28;20190;-58
2022/06/16 13:48:06;;;;;;;6.05;1.60;;;;;;;;;;5095396;28;20207;-57
2022/06/16 13:50:55;;;;;;;3.92;2.30;;;;;;;;;;5095015;28;20195;-58
2022/06/16 13:53:22;;;;;;;4.05;1.80;;;;;;;;;;5095563;28;20218;-57
2022/06/16 13:56:05;;;;;;;5.50;2.03;;;;;;;;;;5095168;28;20243;-58
2022/06/16 13:58:53;;;;;;;3.40;1.90;;;;;;;;;;5080947;28;20209;-58
2022/06/16 14:01:27;;;;;;;5.50;1.48;;;;;;;;;;5095142;28;20199;-58
2022/06/16 14:04:15;;;;;;;2.13;1.30;;;;;;;;;;5095369;28;20186;-56
2022/06/16 14:07:04;;;;;;;2.33;1.38;;;;;;;;;;5095001;28;20214;-58
2022/06/16 14:09:37;;;;;;;3.00;1.20;;;;;;;;;;5077684;28;20207;-56
2022/06/16 14:12:05;;;;;;;3.88;1.70;;;;;;;;;;5077003;28;20187;-59
2022/06/16 14:14:47;;;;;;;2.85;1.40;;;;;;;;;;5094373;28;20276;-59
2022/06/16 14:17:53;;;;;;;2.67;1.30;;;;;;;;;;5094697;28;20267;-57
2022/06/16 14:20:24;;;;;;;4.90;1.50;;;;;;;;;;5054382;28;20207;-56
2022/06/16 14:22:54;;;;;;;3.58;1.40;;;;;;;;;;5077547;28;20597;-58
2022/06/16 14:25:28;;;;;;;2.85;1.50;;;;;;;;;;5094847;28;20251;-58
2022/06/16 14:27:59;;;;;;;4.70;1.35;;;;;;;;;;5077154;28;20222;-58
2022/06/16 14:30:51;;;;;;;2.95;1.27;;;;;;;;;;5095199;28;20272;-57
2022/06/16 14:33:44;;;;;;;4.75;1.70;;;;;;;;;;5055618;28;20276;-58
2022/06/16 14:36:17;;;;;;;5.47;1.50;;;;;;;;;;5077271;28;20241;-58
2022/06/16 14:38:48;;;;;;;2.92;1.38;;;;;;;;;;5095177;28;20198;-57
2022/06/16 14:41:44;;;;;;;2.50;1.58;;;;;;;;;;5094825;28;20198;-58
2022/06/16 14:44:20;;;;;;;4.07;1.15;;;;;;;;;;5094956;28;20198;-57
2022/06/16 14:47:08;;;;;;;1.70;1.10;;;;;;;;;;5077760;28;20206;-57
2022/06/16 14:49:43;;;;;;;3.08;1.23;;;;;;;;;;5078156;28;20194;-57
2022/06/16 14:52:14;;;;;;;3.05;1.75;;;;;;;;;;5094434;28;20534;-58
2022/06/16 14:54:54;;;;;;;5.13;1.60;;;;;;;;;;5094566;28;20237;-58
2022/06/16 14:57:24;;;;;;;5.53;1.35;;;;;;;;;;5099170;28;20246;-58
2022/06/16 14:59:54;;;;;;;5.13;1.30;;;;;;;;;;5098113;28;20194;-58
2022/06/16 15:02:26;;;;;;;3.10;1.70;;;;;;;;;;5098767;28;20187;-59
2022/06/16 15:05:08;;;;;;;3.45;1.35;;;;;;;;;;5081052;28;20581;-58
2022/06/16 15:07:47;;;;;;;3.65;1.20;;;;;;;;;;5082261;28;20214;-58
2022/06/16 15:10:17;;;;;;;4.10;1.50;;;;;;;;;;5098565;28;20209;-58
2022/06/16 15:12:44;;;;;;;2.63;1.25;;;;;;;;;;5080008;28;20225;-59
2022/06/16 15:15:17;;;;;;;5.32;1.55;;;;;;;;;;5080384;28;20260;-58
2022/06/16 15:20:30;;;;;;;2.08;1.08;;;;;;;;;;5098318;28;20264;-58
2022/06/16 15:22:57;;;;;;;2.65;1.60;;;;;;;;;;5097815;28;20632;-57
2022/06/16 15:25:48;;;;;;;3.58;1.30;;;;;;;;;;5079986;28;20202;-58
2022/06/16 15:28:19;;;;;;;2.08;1.20;;;;;;;;;;5098361;28;20207;-57
2022/06/16 15:30:50;;;;;;;1.58;1.20;;;;;;;;;;5097795;28;20214;-56
2022/06/16 15:36:09;;;;;;;1.23;1.02;;;;;;;;;;5097632;28;20681;-58
2022/06/16 15:38:39;;;;;;;3.47;1.38;;;;;;;;;;5097811;28;20229;-58
2022/06/16 15:41:19;;;;;;;2.33;1.27;;;;;;;;;;5080225;28;20210;-58
2022/06/16 15:43:46;;;;;;;4.53;1.77;;;;;;;;;;5097342;28;20195;-57
2022/06/16 15:46:15;;;;;;;1.60;1.20;;;;;;;;;;5079972;28;20558;-59
2022/06/16 15:48:42;;;;;;;3.17;1.40;;;;;;;;;;5097492;28;20202;-58
2022/06/16 15:51:13;;;;;;;3.60;1.30;;;;;;;;;;5097413;28;20202;-56
2022/06/16 15:53:41;;;;;;;1.95;1.20;;;;;;;;;;5080508;28;20220;-58
2022/06/16 15:56:10;;;;;;;5.82;1.48;;;;;;;;;;5097448;28;20249;-57
2022/06/16 15:58:37;;;;;;;3.00;1.42;;;;;;;;;;5080169;28;20203;-58
2022/06/16 16:01:05;;;;;;;10.98;1.60;;;;;;;;;;5097571;28;20203;-57
2022/06/16 16:03:34;;;;;;;4.05;1.30;;;;;;;;;;5079727;28;20199;-56